Aérodrome :
LOGIN :

S'inscrire | Disclaimer

   EN    FR    IT 

 










Légende :    VFR   VFR Marginal   IFR   IFR Intensif   IFR Très Intensif
Visi : 
Plafond : 
>= 8 km
>= 3000ft
5 à 8 km
1000 à 3000 ft
1500m à 5 km
500 à 1000 ft
800 à 1500m
200 à 500 ft
< 800m
< 200 ft
Symboles :   Orages  Brouillard  Fortes neiges  Fortes précipitations  Vent > 20 kt
SIGMETs :   Divers  Orages  Givrage  Turbulence  Onde Orograph.  Cendres Volcan.







- Altitude de l'aérodrome : 1966 ft
- Code IATA : SGE


EDGS - Siegerland

DERNIER METAR :
  • 241520Z 06011KT CAVOK 10/02 Q1027

METARs EXPIRÉS :
  • 241450Z 06010KT 020V100 CAVOK 10/02 Q1027
  • 241420Z 07009KT 040V110 CAVOK 10/02 Q1027
  • 241350Z 07010KT 040V100 CAVOK 09/02 Q1027
  • 241320Z 05009KT CAVOK 09/02 Q1027
  • 241250Z 07009KT 040V100 CAVOK 09/03 Q1027

TAF TAF EDGS
Valide du 24 à 15h jusqu'au 25 à 00h UTC


241400Z 2415/2424 08012KT CAVOK
Pas de NOTAMs connus pour ce terrain.



MET'MAP, la Météo Aéronautique d'un coup d'oeil ! - Copyright ORBIFLY Décembre 2007 - Disclaimer

ORBIFLY MET'MAP TEAM :

Programmation & Développement : Alexandra Zaïnal
Conception & Développement : Baudouin d'Aumeries
Co-Programmation & Développement : Marc-Olivier Méhu
Soutien technique & logistique : Manuel Goepfert

Contact : metmap@orbifly.com




SOURCES & CREDITS :

   NOAA